sensor_id;sensor_type;location;lat;lon;timestamp;P1;durP1;ratioP1;P2;durP2;ratioP2
50559;SDS011;36510;52.610;13.468;2022-12-05T00:04:28;131.35;;;46.75;;
50559;SDS011;36510;52.610;13.468;2022-12-05T00:09:18;129.70;;;47.97;;
50559;SDS011;36510;52.610;13.468;2022-12-05T00:14:09;126.78;;;47.85;;
50559;SDS011;36510;52.610;13.468;2022-12-05T00:19:01;137.85;;;49.40;;
50559;SDS011;36510;52.610;13.468;2022-12-05T00:23:53;127.63;;;48.33;;
50559;SDS011;36510;52.610;13.468;2022-12-05T00:28:46;136.88;;;49.03;;
50559;SDS011;36510;52.610;13.468;2022-12-05T00:33:38;130.20;;;47.17;;
50559;SDS011;36510;52.610;13.468;2022-12-05T00:38:28;133.27;;;47.38;;
50559;SDS011;36510;52.610;13.468;2022-12-05T00:43:19;128.43;;;48.75;;
50559;SDS011;36510;52.610;13.468;2022-12-05T00:48:09;127.10;;;49.42;;
50559;SDS011;36510;52.610;13.468;2022-12-05T00:53:00;127.00;;;48.03;;
50559;SDS011;36510;52.610;13.468;2022-12-05T00:57:50;122.63;;;48.97;;
50559;SDS011;36510;52.610;13.468;2022-12-05T01:02:41;128.18;;;48.88;;
50559;SDS011;36510;52.610;13.468;2022-12-05T01:07:31;128.82;;;49.28;;
50559;SDS011;36510;52.610;13.468;2022-12-05T01:12:22;117.45;;;48.13;;
50559;SDS011;36510;52.610;13.468;2022-12-05T01:17:12;120.85;;;47.40;;
50559;SDS011;36510;52.610;13.468;2022-12-05T01:22:03;118.53;;;46.55;;
50559;SDS011;36510;52.610;13.468;2022-12-05T01:26:53;125.38;;;47.60;;
50559;SDS011;36510;52.610;13.468;2022-12-05T01:31:44;118.97;;;46.15;;
50559;SDS011;36510;52.610;13.468;2022-12-05T01:36:34;118.78;;;47.22;;
50559;SDS011;36510;52.610;13.468;2022-12-05T01:41:26;117.60;;;46.75;;
50559;SDS011;36510;52.610;13.468;2022-12-05T01:46:22;118.18;;;47.47;;
50559;SDS011;36510;52.610;13.468;2022-12-05T01:51:13;125.63;;;46.42;;
50559;SDS011;36510;52.610;13.468;2022-12-05T01:56:04;120.93;;;47.72;;
50559;SDS011;36510;52.610;13.468;2022-12-05T02:00:55;121.88;;;48.40;;
50559;SDS011;36510;52.610;13.468;2022-12-05T02:05:46;119.50;;;46.58;;
50559;SDS011;36510;52.610;13.468;2022-12-05T02:10:41;118.32;;;46.00;;
50559;SDS011;36510;52.610;13.468;2022-12-05T02:15:37;131.45;;;47.15;;
50559;SDS011;36510;52.610;13.468;2022-12-05T02:20:42;134.80;;;49.33;;
50559;SDS011;36510;52.610;13.468;2022-12-05T02:31:09;127.03;;;49.92;;
50559;SDS011;36510;52.610;13.468;2022-12-05T02:36:04;122.05;;;49.05;;
50559;SDS011;36510;52.610;13.468;2022-12-05T02:41:01;128.18;;;48.30;;
50559;SDS011;36510;52.610;13.468;2022-12-05T02:46:22;126.95;;;46.97;;
50559;SDS011;36510;52.610;13.468;2022-12-05T02:51:16;120.43;;;46.67;;
50559;SDS011;36510;52.610;13.468;2022-12-05T02:56:10;128.02;;;48.88;;
50559;SDS011;36510;52.610;13.468;2022-12-05T03:01:01;129.93;;;49.03;;
50559;SDS011;36510;52.610;13.468;2022-12-05T03:05:57;117.18;;;45.38;;
50559;SDS011;36510;52.610;13.468;2022-12-05T03:10:52;115.32;;;45.67;;
50559;SDS011;36510;52.610;13.468;2022-12-05T03:15:47;116.90;;;46.95;;
50559;SDS011;36510;52.610;13.468;2022-12-05T03:20:44;113.07;;;43.78;;
50559;SDS011;36510;52.610;13.468;2022-12-05T03:25:59;118.15;;;44.63;;
50559;SDS011;36510;52.610;13.468;2022-12-05T03:31:03;118.03;;;46.25;;
50559;SDS011;36510;52.610;13.468;2022-12-05T03:36:04;109.00;;;44.75;;
50559;SDS011;36510;52.610;13.468;2022-12-05T03:41:14;101.80;;;41.92;;
50559;SDS011;36510;52.610;13.468;2022-12-05T03:46:23;91.28;;;38.95;;
50559;SDS011;36510;52.610;13.468;2022-12-05T03:56:39;88.55;;;35.00;;
50559;SDS011;36510;52.610;13.468;2022-12-05T04:01:34;78.03;;;35.00;;
50559;SDS011;36510;52.610;13.468;2022-12-05T04:06:28;77.55;;;35.67;;
50559;SDS011;36510;52.610;13.468;2022-12-05T04:11:22;75.88;;;33.17;;
50559;SDS011;36510;52.610;13.468;2022-12-05T04:16:18;70.40;;;31.60;;
50559;SDS011;36510;52.610;13.468;2022-12-05T04:21:33;68.43;;;31.52;;
50559;SDS011;36510;52.610;13.468;2022-12-05T04:26:28;63.33;;;31.10;;
50559;SDS011;36510;52.610;13.468;2022-12-05T04:31:22;65.40;;;30.50;;
50559;SDS011;36510;52.610;13.468;2022-12-05T04:36:21;54.00;;;27.13;;
50559;SDS011;36510;52.610;13.468;2022-12-05T04:41:21;56.80;;;28.05;;
50559;SDS011;36510;52.610;13.468;2022-12-05T04:46:15;58.50;;;28.02;;
50559;SDS011;36510;52.610;13.468;2022-12-05T04:51:08;50.92;;;27.55;;
50559;SDS011;36510;52.610;13.468;2022-12-05T04:56:04;52.38;;;25.02;;
50559;SDS011;36510;52.610;13.468;2022-12-05T05:06:11;48.90;;;26.23;;
50559;SDS011;36510;52.610;13.468;2022-12-05T05:11:03;48.03;;;25.73;;
50559;SDS011;36510;52.610;13.468;2022-12-05T05:16:01;45.08;;;24.83;;
50559;SDS011;36510;52.610;13.468;2022-12-05T05:20:52;43.85;;;22.05;;
50559;SDS011;36510;52.610;13.468;2022-12-05T05:25:42;43.28;;;23.52;;
50559;SDS011;36510;52.610;13.468;2022-12-05T05:30:33;42.05;;;22.50;;
50559;SDS011;36510;52.610;13.468;2022-12-05T05:35:23;39.13;;;21.13;;
50559;SDS011;36510;52.610;13.468;2022-12-05T05:40:14;39.85;;;21.38;;
50559;SDS011;36510;52.610;13.468;2022-12-05T05:45:05;35.05;;;19.25;;
50559;SDS011;36510;52.610;13.468;2022-12-05T05:49:56;34.58;;;19.17;;
50559;SDS011;36510;52.610;13.468;2022-12-05T05:54:46;36.40;;;18.52;;
50559;SDS011;36510;52.610;13.468;2022-12-05T05:59:37;37.25;;;18.92;;
50559;SDS011;36510;52.610;13.468;2022-12-05T06:04:27;34.58;;;17.88;;
50559;SDS011;36510;52.610;13.468;2022-12-05T06:09:18;31.67;;;18.52;;
50559;SDS011;36510;52.610;13.468;2022-12-05T06:14:08;30.73;;;17.33;;
50559;SDS011;36510;52.610;13.468;2022-12-05T06:18:58;27.00;;;16.90;;
50559;SDS011;36510;52.610;13.468;2022-12-05T06:23:49;29.38;;;16.30;;
50559;SDS011;36510;52.610;13.468;2022-12-05T06:28:40;26.58;;;16.40;;
50559;SDS011;36510;52.610;13.468;2022-12-05T06:33:31;27.35;;;16.05;;
50559;SDS011;36510;52.610;13.468;2022-12-05T06:38:21;32.50;;;17.90;;
50559;SDS011;36510;52.610;13.468;2022-12-05T06:43:12;29.02;;;18.05;;
50559;SDS011;36510;52.610;13.468;2022-12-05T06:48:02;31.70;;;17.25;;
50559;SDS011;36510;52.610;13.468;2022-12-05T06:52:53;24.88;;;15.75;;
50559;SDS011;36510;52.610;13.468;2022-12-05T06:57:43;24.42;;;15.02;;
50559;SDS011;36510;52.610;13.468;2022-12-05T07:02:34;23.63;;;14.70;;
50559;SDS011;36510;52.610;13.468;2022-12-05T07:07:24;24.98;;;15.32;;
50559;SDS011;36510;52.610;13.468;2022-12-05T07:12:15;28.02;;;15.75;;
50559;SDS011;36510;52.610;13.468;2022-12-05T07:17:07;28.90;;;16.90;;
50559;SDS011;36510;52.610;13.468;2022-12-05T07:21:58;31.25;;;17.25;;
50559;SDS011;36510;52.610;13.468;2022-12-05T07:26:49;29.55;;;17.27;;
50559;SDS011;36510;52.610;13.468;2022-12-05T07:31:39;30.48;;;17.85;;
50559;SDS011;36510;52.610;13.468;2022-12-05T07:36:30;30.90;;;17.83;;
50559;SDS011;36510;52.610;13.468;2022-12-05T07:41:23;31.38;;;18.08;;
50559;SDS011;36510;52.610;13.468;2022-12-05T07:46:15;33.30;;;18.50;;
50559;SDS011;36510;52.610;13.468;2022-12-05T07:51:07;37.03;;;20.05;;
50559;SDS011;36510;52.610;13.468;2022-12-05T07:55:58;35.90;;;19.33;;
50559;SDS011;36510;52.610;13.468;2022-12-05T08:00:50;37.50;;;19.83;;
50559;SDS011;36510;52.610;13.468;2022-12-05T08:05:40;33.40;;;17.92;;
50559;SDS011;36510;52.610;13.468;2022-12-05T08:10:32;31.85;;;18.10;;
50559;SDS011;36510;52.610;13.468;2022-12-05T08:15:23;30.40;;;17.70;;
50559;SDS011;36510;52.610;13.468;2022-12-05T08:20:13;31.40;;;17.00;;
50559;SDS011;36510;52.610;13.468;2022-12-05T08:25:04;29.52;;;17.00;;
50559;SDS011;36510;52.610;13.468;2022-12-05T08:29:55;28.90;;;17.70;;
50559;SDS011;36510;52.610;13.468;2022-12-05T08:34:45;29.63;;;17.00;;
50559;SDS011;36510;52.610;13.468;2022-12-05T08:39:36;27.95;;;16.63;;
50559;SDS011;36510;52.610;13.468;2022-12-05T08:44:26;26.50;;;16.25;;
50559;SDS011;36510;52.610;13.468;2022-12-05T08:49:17;30.10;;;17.50;;
50559;SDS011;36510;52.610;13.468;2022-12-05T08:54:08;31.58;;;18.02;;
50559;SDS011;36510;52.610;13.468;2022-12-05T08:58:59;30.85;;;17.75;;
50559;SDS011;36510;52.610;13.468;2022-12-05T09:03:51;31.38;;;18.05;;
50559;SDS011;36510;52.610;13.468;2022-12-05T09:08:42;38.85;;;20.95;;
50559;SDS011;36510;52.610;13.468;2022-12-05T09:13:33;35.83;;;20.98;;
50559;SDS011;36510;52.610;13.468;2022-12-05T09:18:24;29.33;;;19.17;;
50559;SDS011;36510;52.610;13.468;2022-12-05T09:23:15;29.70;;;18.42;;
50559;SDS011;36510;52.610;13.468;2022-12-05T09:28:05;28.65;;;19.00;;
50559;SDS011;36510;52.610;13.468;2022-12-05T09:32:56;29.13;;;17.20;;
50559;SDS011;36510;52.610;13.468;2022-12-05T09:37:46;26.38;;;16.67;;
50559;SDS011;36510;52.610;13.468;2022-12-05T09:42:38;26.98;;;17.15;;
50559;SDS011;36510;52.610;13.468;2022-12-05T09:52:44;24.95;;;16.52;;
50559;SDS011;36510;52.610;13.468;2022-12-05T09:57:55;25.48;;;15.90;;
50559;SDS011;36510;52.610;13.468;2022-12-05T10:02:57;25.30;;;15.77;;
50559;SDS011;36510;52.610;13.468;2022-12-05T10:18:39;27.97;;;17.30;;
50559;SDS011;36510;52.610;13.468;2022-12-05T10:28:53;30.02;;;18.42;;
50559;SDS011;36510;52.610;13.468;2022-12-05T10:33:55;27.73;;;17.63;;
50559;SDS011;36510;52.610;13.468;2022-12-05T10:39:00;30.50;;;18.77;;
50559;SDS011;36510;52.610;13.468;2022-12-05T10:43:51;30.85;;;18.63;;
50559;SDS011;36510;52.610;13.468;2022-12-05T10:48:42;30.25;;;19.52;;
50559;SDS011;36510;52.610;13.468;2022-12-05T10:58:30;31.77;;;19.35;;
50559;SDS011;36510;52.610;13.468;2022-12-05T11:03:30;38.20;;;21.50;;
50559;SDS011;36510;52.610;13.468;2022-12-05T11:08:31;37.42;;;23.02;;
50559;SDS011;36510;52.610;13.468;2022-12-05T11:13:23;42.38;;;22.95;;
50559;SDS011;36510;52.610;13.468;2022-12-05T11:18:22;43.85;;;25.05;;
50559;SDS011;36510;52.610;13.468;2022-12-05T11:23:27;46.72;;;26.75;;
50559;SDS011;36510;52.610;13.468;2022-12-05T11:33:20;51.90;;;27.13;;
50559;SDS011;36510;52.610;13.468;2022-12-05T11:38:12;49.45;;;28.42;;
50559;SDS011;36510;52.610;13.468;2022-12-05T11:43:28;46.10;;;26.33;;
50559;SDS011;36510;52.610;13.468;2022-12-05T11:53:29;49.88;;;28.08;;
50559;SDS011;36510;52.610;13.468;2022-12-05T12:03:52;48.97;;;28.27;;
50559;SDS011;36510;52.610;13.468;2022-12-05T12:14:02;54.05;;;28.52;;
50559;SDS011;36510;52.610;13.468;2022-12-05T12:19:31;46.70;;;27.73;;
50559;SDS011;36510;52.610;13.468;2022-12-05T12:24:26;50.28;;;27.65;;
50559;SDS011;36510;52.610;13.468;2022-12-05T12:40:13;49.45;;;27.75;;
50559;SDS011;36510;52.610;13.468;2022-12-05T12:50:39;49.88;;;27.58;;
50559;SDS011;36510;52.610;13.468;2022-12-05T12:55:48;46.92;;;26.85;;
50559;SDS011;36510;52.610;13.468;2022-12-05T13:06:00;47.33;;;25.77;;
50559;SDS011;36510;52.610;13.468;2022-12-05T13:10:56;49.20;;;27.95;;
50559;SDS011;36510;52.610;13.468;2022-12-05T13:15:51;47.28;;;24.63;;
50559;SDS011;36510;52.610;13.468;2022-12-05T13:20:46;46.42;;;27.23;;
50559;SDS011;36510;52.610;13.468;2022-12-05T13:25:39;50.50;;;27.58;;
50559;SDS011;36510;52.610;13.468;2022-12-05T13:30:32;54.53;;;27.55;;
50559;SDS011;36510;52.610;13.468;2022-12-05T13:35:43;53.85;;;28.65;;
50559;SDS011;36510;52.610;13.468;2022-12-05T13:40:52;51.05;;;27.60;;
50559;SDS011;36510;52.610;13.468;2022-12-05T13:46:05;49.08;;;27.20;;
50559;SDS011;36510;52.610;13.468;2022-12-05T13:51:00;49.70;;;27.08;;
50559;SDS011;36510;52.610;13.468;2022-12-05T13:55:54;50.88;;;26.35;;
50559;SDS011;36510;52.610;13.468;2022-12-05T14:00:44;55.67;;;28.58;;
50559;SDS011;36510;52.610;13.468;2022-12-05T14:05:36;52.25;;;27.85;;
50559;SDS011;36510;52.610;13.468;2022-12-05T14:35:40;54.72;;;27.55;;
50559;SDS011;36510;52.610;13.468;2022-12-05T14:55:22;62.45;;;30.63;;
50559;SDS011;36510;52.610;13.468;2022-12-05T15:00:16;64.10;;;29.20;;
50559;SDS011;36510;52.610;13.468;2022-12-05T15:05:29;65.10;;;28.98;;
50559;SDS011;36510;52.610;13.468;2022-12-05T15:10:22;66.35;;;33.17;;
50559;SDS011;36510;52.610;13.468;2022-12-05T15:25:42;78.78;;;32.60;;
50559;SDS011;36510;52.610;13.468;2022-12-05T15:30:33;85.50;;;35.55;;
50559;SDS011;36510;52.610;13.468;2022-12-05T15:35:27;75.20;;;34.05;;
50559;SDS011;36510;52.610;13.468;2022-12-05T15:40:23;85.80;;;35.40;;
50559;SDS011;36510;52.610;13.468;2022-12-05T15:45:26;91.50;;;36.90;;
50559;SDS011;36510;52.610;13.468;2022-12-05T15:55:38;91.32;;;34.70;;
50559;SDS011;36510;52.610;13.468;2022-12-05T16:00:39;91.20;;;34.90;;
50559;SDS011;36510;52.610;13.468;2022-12-05T16:10:30;85.90;;;37.60;;
50559;SDS011;36510;52.610;13.468;2022-12-05T16:15:23;172.80;;;85.97;;
50559;SDS011;36510;52.610;13.468;2022-12-05T16:25:14;109.60;;;45.90;;
50559;SDS011;36510;52.610;13.468;2022-12-05T16:30:20;113.45;;;41.85;;
50559;SDS011;36510;52.610;13.468;2022-12-05T16:40:31;117.55;;;48.00;;
50559;SDS011;36510;52.610;13.468;2022-12-05T16:45:36;130.73;;;50.90;;
50559;SDS011;36510;52.610;13.468;2022-12-05T16:50:34;114.78;;;41.63;;
50559;SDS011;36510;52.610;13.468;2022-12-05T16:55:24;122.55;;;46.50;;
50559;SDS011;36510;52.610;13.468;2022-12-05T17:00:15;116.20;;;39.90;;
50559;SDS011;36510;52.610;13.468;2022-12-05T17:05:11;144.48;;;41.40;;
50559;SDS011;36510;52.610;13.468;2022-12-05T17:10:02;137.80;;;41.63;;
50559;SDS011;36510;52.610;13.468;2022-12-05T17:14:53;124.88;;;40.35;;
50559;SDS011;36510;52.610;13.468;2022-12-05T17:20:07;127.18;;;41.35;;
50559;SDS011;36510;52.610;13.468;2022-12-05T17:25:00;136.85;;;41.83;;
50559;SDS011;36510;52.610;13.468;2022-12-05T17:29:51;156.55;;;43.53;;
50559;SDS011;36510;52.610;13.468;2022-12-05T17:34:41;133.98;;;40.10;;
50559;SDS011;36510;52.610;13.468;2022-12-05T17:39:32;158.75;;;48.20;;
50559;SDS011;36510;52.610;13.468;2022-12-05T17:44:22;178.48;;;46.70;;
50559;SDS011;36510;52.610;13.468;2022-12-05T17:49:13;151.32;;;38.90;;
50559;SDS011;36510;52.610;13.468;2022-12-05T17:54:07;161.45;;;47.47;;
50559;SDS011;36510;52.610;13.468;2022-12-05T17:59:00;158.25;;;39.53;;
50559;SDS011;36510;52.610;13.468;2022-12-05T18:03:51;171.55;;;55.08;;
50559;SDS011;36510;52.610;13.468;2022-12-05T18:08:42;180.07;;;60.00;;
50559;SDS011;36510;52.610;13.468;2022-12-05T18:13:41;166.15;;;50.67;;
50559;SDS011;36510;52.610;13.468;2022-12-05T18:18:32;141.48;;;46.30;;
50559;SDS011;36510;52.610;13.468;2022-12-05T18:23:26;167.88;;;51.33;;
50559;SDS011;36510;52.610;13.468;2022-12-05T18:28:16;152.98;;;48.05;;
50559;SDS011;36510;52.610;13.468;2022-12-05T18:33:09;162.10;;;52.13;;
50559;SDS011;36510;52.610;13.468;2022-12-05T18:38:00;146.55;;;45.70;;
50559;SDS011;36510;52.610;13.468;2022-12-05T18:42:50;180.77;;;46.35;;
50559;SDS011;36510;52.610;13.468;2022-12-05T18:47:41;151.63;;;44.70;;
50559;SDS011;36510;52.610;13.468;2022-12-05T18:52:34;186.07;;;50.35;;
50559;SDS011;36510;52.610;13.468;2022-12-05T18:57:25;140.57;;;51.22;;
50559;SDS011;36510;52.610;13.468;2022-12-05T19:02:16;168.38;;;48.00;;
50559;SDS011;36510;52.610;13.468;2022-12-05T19:07:07;192.10;;;52.35;;
50559;SDS011;36510;52.610;13.468;2022-12-05T19:12:00;152.05;;;48.25;;
50559;SDS011;36510;52.610;13.468;2022-12-05T19:16:51;260.27;;;56.42;;
50559;SDS011;36510;52.610;13.468;2022-12-05T19:21:43;210.82;;;52.28;;
50559;SDS011;36510;52.610;13.468;2022-12-05T19:26:37;172.00;;;49.83;;
50559;SDS011;36510;52.610;13.468;2022-12-05T19:31:32;181.02;;;54.05;;
50559;SDS011;36510;52.610;13.468;2022-12-05T19:36:31;164.40;;;52.17;;
50559;SDS011;36510;52.610;13.468;2022-12-05T19:41:26;221.35;;;56.75;;
50559;SDS011;36510;52.610;13.468;2022-12-05T19:46:22;200.75;;;54.67;;
50559;SDS011;36510;52.610;13.468;2022-12-05T19:51:18;172.48;;;50.53;;
50559;SDS011;36510;52.610;13.468;2022-12-05T19:56:16;151.07;;;46.30;;
50559;SDS011;36510;52.610;13.468;2022-12-05T20:01:24;155.10;;;47.20;;
50559;SDS011;36510;52.610;13.468;2022-12-05T20:11:23;105.70;;;35.13;;
50559;SDS011;36510;52.610;13.468;2022-12-05T20:16:27;100.57;;;33.38;;
50559;SDS011;36510;52.610;13.468;2022-12-05T20:21:19;107.80;;;34.08;;
50559;SDS011;36510;52.610;13.468;2022-12-05T20:26:13;111.43;;;34.47;;
50559;SDS011;36510;52.610;13.468;2022-12-05T20:36:32;131.38;;;35.50;;
50559;SDS011;36510;52.610;13.468;2022-12-05T20:41:26;95.22;;;32.55;;
50559;SDS011;36510;52.610;13.468;2022-12-05T20:46:26;101.20;;;32.00;;
50559;SDS011;36510;52.610;13.468;2022-12-05T20:51:19;101.22;;;31.25;;
50559;SDS011;36510;52.610;13.468;2022-12-05T20:56:12;103.90;;;32.90;;
50559;SDS011;36510;52.610;13.468;2022-12-05T21:01:07;110.10;;;35.10;;
50559;SDS011;36510;52.610;13.468;2022-12-05T21:06:04;109.03;;;35.35;;
50559;SDS011;36510;52.610;13.468;2022-12-05T21:10:56;133.00;;;38.22;;
50559;SDS011;36510;52.610;13.468;2022-12-05T21:15:46;121.55;;;35.17;;
50559;SDS011;36510;52.610;13.468;2022-12-05T21:20:37;136.95;;;39.45;;
50559;SDS011;36510;52.610;13.468;2022-12-05T21:25:27;100.65;;;32.55;;
50559;SDS011;36510;52.610;13.468;2022-12-05T21:30:18;115.63;;;36.53;;
50559;SDS011;36510;52.610;13.468;2022-12-05T21:35:09;120.25;;;37.33;;
50559;SDS011;36510;52.610;13.468;2022-12-05T21:40:00;117.82;;;37.13;;
50559;SDS011;36510;52.610;13.468;2022-12-05T21:44:51;125.05;;;37.88;;
50559;SDS011;36510;52.610;13.468;2022-12-05T21:49:41;122.40;;;39.70;;
50559;SDS011;36510;52.610;13.468;2022-12-05T21:54:31;118.95;;;39.28;;
50559;SDS011;36510;52.610;13.468;2022-12-05T21:59:22;106.90;;;34.10;;
50559;SDS011;36510;52.610;13.468;2022-12-05T22:04:12;109.95;;;35.60;;
50559;SDS011;36510;52.610;13.468;2022-12-05T22:09:03;104.40;;;34.60;;
50559;SDS011;36510;52.610;13.468;2022-12-05T22:13:53;99.03;;;33.72;;
50559;SDS011;36510;52.610;13.468;2022-12-05T22:18:44;86.78;;;29.90;;
50559;SDS011;36510;52.610;13.468;2022-12-05T22:23:35;78.43;;;25.67;;
50559;SDS011;36510;52.610;13.468;2022-12-05T22:28:26;82.45;;;29.55;;
50559;SDS011;36510;52.610;13.468;2022-12-05T22:33:17;81.70;;;26.88;;
50559;SDS011;36510;52.610;13.468;2022-12-05T22:38:08;67.25;;;26.10;;
50559;SDS011;36510;52.610;13.468;2022-12-05T22:42:58;68.85;;;25.48;;
50559;SDS011;36510;52.610;13.468;2022-12-05T22:47:48;87.20;;;27.58;;
50559;SDS011;36510;52.610;13.468;2022-12-05T22:52:39;76.78;;;26.98;;
50559;SDS011;36510;52.610;13.468;2022-12-05T22:57:29;71.55;;;28.10;;
50559;SDS011;36510;52.610;13.468;2022-12-05T23:02:20;70.65;;;27.45;;
50559;SDS011;36510;52.610;13.468;2022-12-05T23:07:10;70.22;;;26.52;;
50559;SDS011;36510;52.610;13.468;2022-12-05T23:12:01;71.32;;;27.65;;
50559;SDS011;36510;52.610;13.468;2022-12-05T23:16:51;76.03;;;28.55;;
50559;SDS011;36510;52.610;13.468;2022-12-05T23:21:42;85.45;;;28.83;;
50559;SDS011;36510;52.610;13.468;2022-12-05T23:26:33;93.47;;;29.42;;
50559;SDS011;36510;52.610;13.468;2022-12-05T23:31:26;74.30;;;24.77;;
50559;SDS011;36510;52.610;13.468;2022-12-05T23:36:17;57.53;;;23.42;;
50559;SDS011;36510;52.610;13.468;2022-12-05T23:41:19;64.90;;;22.33;;
50559;SDS011;36510;52.610;13.468;2022-12-05T23:46:11;60.17;;;22.13;;
50559;SDS011;36510;52.610;13.468;2022-12-05T23:55:53;59.75;;;23.17;;
